createdAt,value
2024-04-09T00:01:31.471Z,63.69
2024-04-09T00:03:58.484Z,63.76
2024-04-09T00:06:26.803Z,64.13
2024-04-09T00:08:57.300Z,64.12
2024-04-09T00:11:24.546Z,63.02
2024-04-09T00:13:55.634Z,62.23
2024-04-09T00:16:30.738Z,61.87
2024-04-09T00:18:59.046Z,61.98
2024-04-09T00:21:27.789Z,61.33
2024-04-09T00:23:58.611Z,60.52
2024-04-09T00:26:25.656Z,60.90
2024-04-09T00:28:52.949Z,60.78
2024-04-09T00:31:22.329Z,60.41
2024-04-09T00:33:49.431Z,60.25
2024-04-09T00:36:16.419Z,59.78
2024-04-09T00:38:43.209Z,59.72
2024-04-09T00:41:12.102Z,59.82
2024-04-09T00:43:39.180Z,60.16
2024-04-09T00:46:06.778Z,60.83
2024-04-09T00:48:34.887Z,61.88
2024-04-09T00:51:02.512Z,61.89
2024-04-09T00:53:30.014Z,62.71
2024-04-09T00:55:57.607Z,62.55
2024-04-09T00:58:25.380Z,60.34
2024-04-09T01:00:54.525Z,58.33
2024-04-09T01:03:21.888Z,59.12
2024-04-09T01:05:49.017Z,61.10
2024-04-09T01:08:15.732Z,61.33
2024-04-09T01:10:42.557Z,61.04
2024-04-09T01:13:09.377Z,61.71
2024-04-09T01:15:37.715Z,61.33
2024-04-09T01:18:05.063Z,60.05
2024-04-09T01:20:31.910Z,59.25
2024-04-09T01:22:58.692Z,59.73
2024-04-09T01:25:25.554Z,60.65
2024-04-09T01:27:52.820Z,60.07
2024-04-09T01:30:20.411Z,61.02
2024-04-09T01:32:47.940Z,61.26
2024-04-09T01:35:15.701Z,62.46
2024-04-09T01:37:44.099Z,62.51
2024-04-09T01:40:12.118Z,61.79
2024-04-09T01:42:39.083Z,61.20
2024-04-09T01:45:06.447Z,60.93
2024-04-09T01:47:34.142Z,61.51
2024-04-09T01:50:01.095Z,62.19
2024-04-09T01:52:27.937Z,61.95
2024-04-09T01:54:54.850Z,61.40
2024-04-09T01:57:21.620Z,61.56
2024-04-09T01:59:48.534Z,61.77
2024-04-09T02:02:18.061Z,61.09
2024-04-09T02:04:45.674Z,60.34
2024-04-09T02:07:13.095Z,60.13
2024-04-09T02:09:40.139Z,60.81
2024-04-09T02:12:09.310Z,60.80
2024-04-09T02:14:36.852Z,60.36
2024-04-09T02:17:03.819Z,59.97
2024-04-09T02:19:30.485Z,58.95
2024-04-09T02:21:57.761Z,58.82
2024-04-09T02:24:25.479Z,58.19
2024-04-09T02:26:52.404Z,59.98
2024-04-09T02:29:19.200Z,59.85
2024-04-09T02:31:46.082Z,58.82
2024-04-09T02:34:12.901Z,57.12
2024-04-09T02:36:39.810Z,56.30
2024-04-09T02:39:10.192Z,56.08
2024-04-09T02:41:40.913Z,56.88
2024-04-09T02:44:08.784Z,57.31
2024-04-09T02:46:37.339Z,57.26
2024-04-09T02:49:04.871Z,56.11
2024-04-09T02:51:31.950Z,56.63
2024-04-09T02:53:58.845Z,57.84
2024-04-09T02:56:25.725Z,56.71
2024-04-09T02:58:52.493Z,57.44
2024-04-09T03:01:19.546Z,57.64
2024-04-09T03:03:46.528Z,57.88
2024-04-09T03:06:14.909Z,58.15
2024-04-09T03:08:43.482Z,58.60
2024-04-09T03:11:17.880Z,58.03
2024-04-09T03:13:47.842Z,57.76
2024-04-09T03:16:16.733Z,57.94
2024-04-09T03:18:44.996Z,58.01
2024-04-09T03:21:12.582Z,58.38
2024-04-09T03:23:41.004Z,58.48
2024-04-09T03:26:10.382Z,58.81
2024-04-09T03:28:37.265Z,59.25
2024-04-09T03:31:04.412Z,59.31
2024-04-09T03:33:32.032Z,60.17
2024-04-09T03:36:00.932Z,62.01
2024-04-09T03:38:28.553Z,62.76
2024-04-09T03:41:00.747Z,62.36
2024-04-09T03:43:28.420Z,62.99
2024-04-09T03:46:12.290Z,65.27
2024-04-09T03:48:46.323Z,65.73
2024-04-09T03:51:15.994Z,65.81
2024-04-09T03:53:43.447Z,65.78
2024-04-09T03:56:14.305Z,64.79
2024-04-09T03:58:43.204Z,65.42
2024-04-09T04:01:10.920Z,65.29
2024-04-09T04:03:42.963Z,64.74
2024-04-09T04:06:10.072Z,64.60
2024-04-09T04:08:37.711Z,64.77
2024-04-09T04:11:06.976Z,65.08
2024-04-09T04:13:35.486Z,64.88
2024-04-09T04:16:06.769Z,65.08
2024-04-09T04:18:47.456Z,65.87
2024-04-09T04:21:17.571Z,66.15
2024-04-09T04:23:46.718Z,64.49
2024-04-09T04:26:14.721Z,63.94
2024-04-09T04:28:43.499Z,64.86
2024-04-09T04:31:12.752Z,65.28
2024-04-09T04:33:40.854Z,65.90
2024-04-09T04:36:09.494Z,66.31
2024-04-09T04:38:37.252Z,66.26
2024-04-09T04:41:05.951Z,66.72
2024-04-09T04:43:33.443Z,66.50
2024-04-09T04:46:00.821Z,65.42
2024-04-09T04:48:31.318Z,65.05
2024-04-09T04:50:58.736Z,66.04
2024-04-09T04:53:28.591Z,65.90
2024-04-09T04:55:55.513Z,65.61
2024-04-09T04:58:22.304Z,65.36
2024-04-09T05:00:49.532Z,65.35
2024-04-09T05:03:16.568Z,64.87
2024-04-09T05:05:43.472Z,63.63
2024-04-09T05:08:10.327Z,63.36
2024-04-09T05:10:38.821Z,63.15
2024-04-09T05:13:05.940Z,64.01
2024-04-09T05:15:32.684Z,63.88
2024-04-09T05:17:59.977Z,62.05
2024-04-09T05:20:30.508Z,62.85
2024-04-09T05:22:59.045Z,62.66
2024-04-09T05:25:31.788Z,63.62
2024-04-09T05:27:58.846Z,64.72
2024-04-09T05:30:25.707Z,66.40
2024-04-09T05:32:52.906Z,66.07
2024-04-09T05:35:22.606Z,66.38
2024-04-09T05:37:51.531Z,65.86
2024-04-09T05:40:18.785Z,65.40
2024-04-09T05:42:48.170Z,65.39
2024-04-09T05:45:17.557Z,64.99
2024-04-09T05:47:44.716Z,63.27
2024-04-09T05:50:11.976Z,63.45
2024-04-09T05:52:39.063Z,63.05
2024-04-09T05:55:07.301Z,62.37
2024-04-09T05:57:39.353Z,61.73
2024-04-09T06:00:17.023Z,62.76
2024-04-09T06:02:46.309Z,62.35
2024-04-09T06:05:13.196Z,60.56
2024-04-09T06:07:39.878Z,59.65
2024-04-09T06:10:07.119Z,58.44
2024-04-09T06:12:34.720Z,58.59
2024-04-09T06:15:02.181Z,60.99
2024-04-09T06:17:30.062Z,61.27
2024-04-09T06:19:58.960Z,60.40
2024-04-09T06:22:26.792Z,60.12
2024-04-09T06:24:53.931Z,58.37
2024-04-09T06:27:20.875Z,58.18
2024-04-09T06:29:47.796Z,57.87
2024-04-09T06:32:14.771Z,57.28
2024-04-09T06:34:43.598Z,56.49
2024-04-09T06:37:10.895Z,55.82
2024-04-09T06:39:38.252Z,54.97
2024-04-09T06:42:06.490Z,54.51
2024-04-09T06:44:33.711Z,53.07
2024-04-09T06:47:01.199Z,52.04
2024-04-09T06:49:28.260Z,49.90
2024-04-09T06:51:55.476Z,48.42
2024-04-09T06:54:22.913Z,48.08
2024-04-09T06:56:50.176Z,47.63
2024-04-09T06:59:17.549Z,46.91
2024-04-09T07:01:44.691Z,46.00
2024-04-09T07:04:11.857Z,45.06
2024-04-09T07:06:39.661Z,43.09
2024-04-09T07:09:07.814Z,42.83
2024-04-09T07:11:35.265Z,42.80
2024-04-09T07:14:02.241Z,41.41
2024-04-09T07:16:29.146Z,40.17
2024-04-09T07:18:56.203Z,38.98
2024-04-09T07:21:23.245Z,38.29
2024-04-09T07:23:50.622Z,39.10
2024-04-09T07:26:17.927Z,38.60
2024-04-09T07:28:45.040Z,38.42
2024-04-09T07:31:12.251Z,39.15
2024-04-09T07:33:39.730Z,38.98
2024-04-09T07:36:07.642Z,39.61
2024-04-09T07:38:34.595Z,39.41
2024-04-09T07:41:01.916Z,38.89
2024-04-09T07:43:34.264Z,38.09
2024-04-09T07:46:03.361Z,38.97
2024-04-09T07:48:30.490Z,39.25
2024-04-09T07:50:57.683Z,38.19
2024-04-09T07:53:24.628Z,37.94
2024-04-09T07:55:52.249Z,37.41
2024-04-09T07:58:19.072Z,36.04
2024-04-09T08:00:46.099Z,35.98
2024-04-09T08:03:13.217Z,34.78
2024-04-09T08:05:41.033Z,34.66
2024-04-09T08:08:09.346Z,35.49
2024-04-09T08:10:37.048Z,32.57
2024-04-09T08:13:04.179Z,33.00
2024-04-09T08:15:31.379Z,33.27
2024-04-09T08:17:58.938Z,32.23
2024-04-09T08:20:26.009Z,31.96
2024-04-09T08:22:53.629Z,31.68
2024-04-09T08:25:21.983Z,34.12
2024-04-09T08:27:52.817Z,34.25
2024-04-09T08:30:19.871Z,36.02
2024-04-09T08:32:51.801Z,33.78
2024-04-09T08:35:19.017Z,32.47
2024-04-09T08:37:46.588Z,31.49
2024-04-09T08:40:15.278Z,31.39
2024-04-09T08:42:46.262Z,31.23
2024-04-09T08:45:17.278Z,30.76
2024-04-09T08:47:50.318Z,31.94
2024-04-09T08:50:18.101Z,31.28
2024-04-09T08:52:46.367Z,32.92
2024-04-09T08:55:14.610Z,32.28
2024-04-09T08:57:42.494Z,32.42
2024-04-09T09:00:09.713Z,32.79
2024-04-09T09:02:37.087Z,32.08
2024-04-09T09:05:04.274Z,31.54
2024-04-09T09:07:31.367Z,31.38
2024-04-09T09:10:04.699Z,30.44
2024-04-09T09:12:31.743Z,30.69
2024-04-09T09:15:05.581Z,31.13
2024-04-09T09:17:34.871Z,29.94
2024-04-09T09:20:10.313Z,29.63
2024-04-09T09:22:49.042Z,30.34
2024-04-09T09:25:20.309Z,29.89
2024-04-09T09:27:47.858Z,29.23
2024-04-09T09:30:15.859Z,29.42
2024-04-09T09:32:51.732Z,29.44
2024-04-09T09:35:19.797Z,28.96
2024-04-09T09:37:50.776Z,27.08
2024-04-09T09:40:18.372Z,27.65
2024-04-09T09:42:46.771Z,28.69
2024-04-09T09:45:15.103Z,27.06
2024-04-09T09:47:42.224Z,28.04
2024-04-09T09:50:18.163Z,26.47
2024-04-09T09:52:46.718Z,24.42
2024-04-09T09:55:14.066Z,25.00
2024-04-09T09:57:46.079Z,25.72
2024-04-09T10:00:17.022Z,25.66
2024-04-09T10:05:16.756Z,26.55
2024-04-09T10:07:47.150Z,27.43
2024-04-09T10:10:25.192Z,26.96
2024-04-09T10:12:55.366Z,26.87
2024-04-09T10:15:29.436Z,26.71
2024-04-09T10:18:05.320Z,27.55
2024-04-09T10:20:37.217Z,26.40
2024-04-09T10:23:07.296Z,27.24
2024-04-09T10:25:41.524Z,24.97
2024-04-09T10:28:12.711Z,26.51
2024-04-09T10:30:41.578Z,27.63
2024-04-09T10:33:09.269Z,28.09
2024-04-09T10:35:36.312Z,28.28
2024-04-09T10:38:07.466Z,27.85
2024-04-09T10:40:38.129Z,29.77
2024-04-09T10:43:09.450Z,26.61
2024-04-09T10:45:47.679Z,26.80
2024-04-09T10:48:23.882Z,27.75
2024-04-09T10:50:52.219Z,27.30
2024-04-09T10:53:19.626Z,29.55
2024-04-09T10:55:46.761Z,25.91
2024-04-09T10:58:18.572Z,25.27
2024-04-09T11:00:56.211Z,26.51
2024-04-09T11:03:24.738Z,24.77
2024-04-09T11:05:52.881Z,25.70
2024-04-09T11:08:31.870Z,22.38
2024-04-09T11:11:03.398Z,22.19
2024-04-09T11:13:31.795Z,22.00
2024-04-09T11:15:59.284Z,21.59
2024-04-09T11:18:27.047Z,18.91
2024-04-09T11:20:56.887Z,18.04
2024-04-09T11:23:24.859Z,19.61
2024-04-09T11:25:55.431Z,20.52
2024-04-09T11:28:24.061Z,17.63
2024-04-09T11:30:55.784Z,17.25
2024-04-09T11:33:23.180Z,18.65
2024-04-09T11:35:54.617Z,14.89
2024-04-09T11:38:22.197Z,15.65
2024-04-09T11:40:49.178Z,16.20
2024-04-09T11:43:16.094Z,17.98
2024-04-09T11:45:43.680Z,17.88
2024-04-09T11:48:12.633Z,19.09
2024-04-09T11:50:39.709Z,19.56
2024-04-09T11:53:07.074Z,21.24
2024-04-09T11:55:34.044Z,20.44
2024-04-09T11:58:00.897Z,20.61
2024-04-09T12:00:27.971Z,20.30
2024-04-09T12:02:55.597Z,15.79
2024-04-09T12:05:23.435Z,16.37
2024-04-09T12:07:50.422Z,17.08
2024-04-09T12:10:17.758Z,18.64
2024-04-09T12:12:44.834Z,19.17
2024-04-09T12:15:11.875Z,19.46
2024-04-09T12:17:39.034Z,19.41
2024-04-09T12:20:06.690Z,19.17
2024-04-09T12:22:34.416Z,19.21
2024-04-09T12:25:01.653Z,18.91
2024-04-09T12:27:29.165Z,19.20
2024-04-09T12:29:56.004Z,19.50
2024-04-09T12:32:23.332Z,18.45
2024-04-09T12:34:52.089Z,19.25
2024-04-09T12:37:19.068Z,20.45
2024-04-09T12:39:45.913Z,20.89
2024-04-09T12:42:12.957Z,20.37
2024-04-09T12:44:39.771Z,21.29
2024-04-09T12:47:07.266Z,21.47
2024-04-09T12:49:42.034Z,21.49
2024-04-09T12:52:14.941Z,21.95
2024-04-09T12:54:42.837Z,21.96
2024-04-09T12:57:09.851Z,22.02
2024-04-09T13:02:12.922Z,23.10
2024-04-09T13:04:40.387Z,22.94
2024-04-09T13:07:10.256Z,24.40
2024-04-09T13:09:37.567Z,24.81
2024-04-09T13:12:04.915Z,26.41
2024-04-09T13:14:31.831Z,27.58
2024-04-09T13:17:01.532Z,27.84
2024-04-09T13:19:31.336Z,27.46
2024-04-09T13:21:58.267Z,27.75
2024-04-09T13:24:25.051Z,28.92
2024-04-09T13:26:51.919Z,29.46
2024-04-09T13:29:19.025Z,28.74
2024-04-09T13:31:46.127Z,29.04
2024-04-09T13:34:13.486Z,28.32
2024-04-09T13:36:40.365Z,29.60
2024-04-09T13:39:09.087Z,30.82
2024-04-09T13:41:35.955Z,31.31
2024-04-09T13:44:03.028Z,30.71
2024-04-09T13:46:29.935Z,30.96
2024-04-09T13:48:57.385Z,30.36
2024-04-09T13:51:24.395Z,31.33
2024-04-09T13:53:52.042Z,30.67
2024-04-09T13:56:19.250Z,32.29
2024-04-09T13:58:46.146Z,33.74
2024-04-09T14:01:13.309Z,34.90
2024-04-09T14:03:40.661Z,34.87
2024-04-09T14:06:07.975Z,33.94
2024-04-09T14:08:35.016Z,34.01
2024-04-09T14:11:02.885Z,35.42
2024-04-09T14:13:30.124Z,35.52
2024-04-09T14:15:57.437Z,36.57
2024-04-09T14:18:32.108Z,36.54
2024-04-09T14:21:03.729Z,37.36
2024-04-09T14:23:31.504Z,38.01
2024-04-09T14:25:59.639Z,37.92
2024-04-09T14:28:26.556Z,39.08
2024-04-09T14:30:53.613Z,39.39
2024-04-09T14:33:20.437Z,40.11
2024-04-09T14:35:47.299Z,41.05
2024-04-09T14:38:14.191Z,41.65
2024-04-09T14:40:42.114Z,41.77
2024-04-09T14:43:09.208Z,42.22
2024-04-09T14:45:36.189Z,42.49
2024-04-09T14:48:03.827Z,42.54
2024-04-09T14:50:30.977Z,43.05
2024-04-09T14:52:57.870Z,43.81
2024-04-09T14:55:24.756Z,43.08
2024-04-09T14:57:51.811Z,43.20
2024-04-09T15:00:19.143Z,43.52
2024-04-09T15:02:46.140Z,43.04
2024-04-09T15:05:14.223Z,43.68
2024-04-09T15:07:41.336Z,42.61
2024-04-09T15:10:09.077Z,43.32
2024-04-09T15:12:42.665Z,43.73
2024-04-09T15:15:09.996Z,43.73
2024-04-09T15:17:36.900Z,43.62
2024-04-09T15:20:05.275Z,43.55
2024-04-09T15:22:32.134Z,43.97
2024-04-09T15:24:58.913Z,43.39
2024-04-09T15:27:25.700Z,43.65
2024-04-09T15:29:52.475Z,42.30
2024-04-09T15:32:19.548Z,43.30
2024-04-09T15:34:49.651Z,42.84
2024-04-09T15:37:17.142Z,43.19
2024-04-09T15:39:43.923Z,43.01
2024-04-09T15:42:11.079Z,43.71
2024-04-09T15:44:38.045Z,43.58
2024-04-09T15:47:05.104Z,43.62
2024-04-09T15:49:31.995Z,43.91
2024-04-09T15:51:58.892Z,44.56
2024-04-09T15:54:25.757Z,44.58
2024-04-09T15:56:52.600Z,45.33
2024-04-09T15:59:19.450Z,47.61
2024-04-09T16:01:49.303Z,50.09
2024-04-09T16:04:16.490Z,51.80
2024-04-09T16:06:46.742Z,53.22
2024-04-09T16:09:17.395Z,53.84
2024-04-09T16:11:44.536Z,54.09
2024-04-09T16:14:11.669Z,54.07
2024-04-09T16:16:38.615Z,54.44
2024-04-09T16:19:10.032Z,53.49
2024-04-09T16:21:38.492Z,53.76
2024-04-09T16:24:05.436Z,55.01
2024-04-09T16:26:32.353Z,55.14
2024-04-09T16:28:59.587Z,55.33
2024-04-09T16:31:26.400Z,55.62
2024-04-09T16:33:54.043Z,55.23
2024-04-09T16:36:21.073Z,53.74
2024-04-09T16:38:48.913Z,54.31
2024-04-09T16:41:16.042Z,54.51
2024-04-09T16:43:43.567Z,54.24
2024-04-09T16:46:11.052Z,54.52
2024-04-09T16:48:38.177Z,55.13
2024-04-09T16:51:06.119Z,55.20
2024-04-09T16:53:33.147Z,54.75
2024-04-09T16:56:04.221Z,55.24
2024-04-09T16:58:31.808Z,54.51
2024-04-09T17:00:59.258Z,54.26
2024-04-09T17:03:26.392Z,54.75
2024-04-09T17:05:53.634Z,55.22
2024-04-09T17:08:21.398Z,55.38
2024-04-09T17:10:58.020Z,54.48
2024-04-09T17:13:25.266Z,54.25
2024-04-09T17:15:52.518Z,54.53
2024-04-09T17:18:19.608Z,55.20
2024-04-09T17:20:47.200Z,55.51
2024-04-09T17:23:15.946Z,53.86
2024-04-09T17:25:42.837Z,54.15
2024-04-09T17:28:09.701Z,55.18
2024-04-09T17:30:36.756Z,54.89
2024-04-09T17:33:04.079Z,55.47
2024-04-09T17:35:33.330Z,55.27
2024-04-09T17:38:03.231Z,54.74
2024-04-09T17:40:30.126Z,54.87
2024-04-09T17:42:58.629Z,55.21
2024-04-09T17:45:25.445Z,54.92
2024-04-09T17:47:52.512Z,54.21
2024-04-09T17:50:19.573Z,53.22
2024-04-09T17:52:46.641Z,52.33
2024-04-09T17:55:13.500Z,52.55
2024-04-09T17:57:40.305Z,53.06
2024-04-09T18:00:07.947Z,52.71
2024-04-09T18:02:35.029Z,52.99
2024-04-09T18:05:02.110Z,53.35
2024-04-09T18:07:29.126Z,52.83
2024-04-09T18:09:55.926Z,52.08
2024-04-09T18:12:24.621Z,52.54
2024-04-09T18:14:51.506Z,52.06
2024-04-09T18:17:24.041Z,51.34
2024-04-09T18:19:51.365Z,53.07
2024-04-09T18:22:18.164Z,54.09
2024-04-09T18:24:45.318Z,54.65
2024-04-09T18:27:12.131Z,55.09
2024-04-09T18:29:38.911Z,55.09
2024-04-09T18:32:06.946Z,54.71
2024-04-09T18:34:37.046Z,56.01
2024-04-09T18:37:04.544Z,56.73
2024-04-09T18:39:31.430Z,57.61
2024-04-09T18:41:58.222Z,57.97
2024-04-09T18:44:30.255Z,57.77
2024-04-09T18:46:57.286Z,57.12
2024-04-09T18:49:24.194Z,56.54
2024-04-09T18:51:51.113Z,57.60
2024-04-09T18:54:17.879Z,58.27
2024-04-09T18:56:44.817Z,57.00
2024-04-09T18:59:11.650Z,57.21
2024-04-09T19:01:39.006Z,57.48
2024-04-09T19:04:07.727Z,59.66
2024-04-09T19:06:34.599Z,60.14
2024-04-09T19:09:01.383Z,60.87
2024-04-09T19:11:29.139Z,60.56
2024-04-09T19:13:57.044Z,61.64
2024-04-09T19:16:26.231Z,60.75
2024-04-09T19:18:53.194Z,62.79
2024-04-09T19:21:20.231Z,64.40
2024-04-09T19:23:47.231Z,64.19
2024-04-09T19:26:14.270Z,62.41
2024-04-09T19:28:41.143Z,65.72
2024-04-09T19:31:07.992Z,66.69
2024-04-09T19:33:36.342Z,67.30
2024-04-09T19:36:04.856Z,66.84
2024-04-09T19:38:31.873Z,67.53
2024-04-09T19:40:58.971Z,68.14
2024-04-09T19:43:37.468Z,69.15
2024-04-09T19:46:09.595Z,68.79
2024-04-09T19:48:36.860Z,68.91
2024-04-09T19:51:04.383Z,70.10
2024-04-09T19:53:44.907Z,71.04
2024-04-09T19:56:18.482Z,71.50
2024-04-09T19:58:45.395Z,72.30
2024-04-09T20:01:12.270Z,72.19
2024-04-09T20:03:39.250Z,70.22
2024-04-09T20:06:06.319Z,70.02
2024-04-09T20:08:33.192Z,70.42
2024-04-09T20:11:03.323Z,70.32
2024-04-09T20:13:30.217Z,70.91
2024-04-09T20:15:57.046Z,69.69
2024-04-09T20:18:27.209Z,70.24
2024-04-09T20:20:54.397Z,70.38
2024-04-09T20:23:21.401Z,69.99
2024-04-09T20:25:59.201Z,69.85
2024-04-09T20:28:26.201Z,69.88
2024-04-09T20:30:54.215Z,69.11
2024-04-09T20:33:21.371Z,69.36
2024-04-09T20:35:48.396Z,68.65
2024-04-09T20:40:42.984Z,69.19
2024-04-09T20:43:09.775Z,70.02
2024-04-09T20:45:36.747Z,69.88
2024-04-09T20:48:04.273Z,70.42
2024-04-09T20:50:31.472Z,72.59
2024-04-09T20:52:59.100Z,71.22
2024-04-09T20:55:25.961Z,72.78
2024-04-09T20:57:53.277Z,70.64
2024-04-09T21:00:20.113Z,70.36
2024-04-09T21:02:47.290Z,70.60
2024-04-09T21:05:14.156Z,70.82
2024-04-09T21:07:41.555Z,72.25
2024-04-09T21:10:09.798Z,73.12
2024-04-09T21:12:37.234Z,73.71
2024-04-09T21:15:05.302Z,75.17
2024-04-09T21:17:32.763Z,76.36
2024-04-09T21:19:59.790Z,76.62
2024-04-09T21:22:26.619Z,75.94
2024-04-09T21:24:53.428Z,78.38
2024-04-09T21:27:20.244Z,79.19
2024-04-09T21:29:47.034Z,78.68
2024-04-09T21:32:14.104Z,75.12
2024-04-09T21:34:41.973Z,76.91
2024-04-09T21:37:08.834Z,76.00
2024-04-09T21:39:35.986Z,74.54
2024-04-09T21:42:02.798Z,74.92
2024-04-09T21:44:29.633Z,73.72
2024-04-09T21:46:56.539Z,72.96
2024-04-09T21:49:23.775Z,73.59
2024-04-09T21:51:50.756Z,70.91
2024-04-09T21:54:17.734Z,70.80
2024-04-09T21:56:44.552Z,70.23
2024-04-09T21:59:11.404Z,70.03
2024-04-09T22:01:38.364Z,69.76
2024-04-09T22:04:05.350Z,72.51
2024-04-09T22:06:32.171Z,72.72
2024-04-09T22:08:58.997Z,73.55
2024-04-09T22:11:25.955Z,74.73
2024-04-09T22:13:52.911Z,73.05
2024-04-09T22:16:19.711Z,74.10
2024-04-09T22:18:46.629Z,73.88
2024-04-09T22:21:13.694Z,76.63
2024-04-09T22:23:40.609Z,78.17
2024-04-09T22:26:07.511Z,80.15
2024-04-09T22:28:35.285Z,80.71
2024-04-09T22:31:05.227Z,81.39
2024-04-09T22:33:32.331Z,81.80
2024-04-09T22:35:59.244Z,81.86
2024-04-09T22:38:26.210Z,80.94
2024-04-09T22:40:53.566Z,79.34
2024-04-09T22:43:20.432Z,80.11
2024-04-09T22:45:47.312Z,81.53
2024-04-09T22:48:14.539Z,82.39
2024-04-09T22:50:41.822Z,82.18
2024-04-09T22:53:08.730Z,82.63
2024-04-09T22:55:35.549Z,82.22
2024-04-09T22:58:02.360Z,82.57
2024-04-09T23:00:29.158Z,83.99
2024-04-09T23:02:56.061Z,85.40
2024-04-09T23:05:23.119Z,86.17
2024-04-09T23:07:49.988Z,85.86
2024-04-09T23:10:16.914Z,86.41
2024-04-09T23:12:43.710Z,86.69
2024-04-09T23:15:10.616Z,86.49
2024-04-09T23:17:37.624Z,86.90
2024-04-09T23:20:05.047Z,88.23
2024-04-09T23:22:31.911Z,88.05
2024-04-09T23:24:58.707Z,88.52
2024-04-09T23:27:25.505Z,89.28
2024-04-09T23:29:52.346Z,90.39
2024-04-09T23:32:19.278Z,88.95
2024-04-09T23:34:46.714Z,90.39
2024-04-09T23:37:13.620Z,90.34
2024-04-09T23:39:40.425Z,89.37
2024-04-09T23:42:07.868Z,88.58
2024-04-09T23:44:34.877Z,88.36
2024-04-09T23:47:03.128Z,86.63
2024-04-09T23:49:30.853Z,86.35
2024-04-09T23:51:57.525Z,86.12
2024-04-09T23:54:24.400Z,84.99
2024-04-09T23:56:51.337Z,86.05
2024-04-09T23:59:19.002Z,85.53
